createdAt,value
2019-05-18T00:00:52.907Z,18.86
2019-05-18T00:03:25.772Z,18.04
2019-05-18T00:05:58.677Z,17.46
2019-05-18T00:08:31.476Z,16.93
2019-05-18T00:11:04.504Z,18.62
2019-05-18T00:13:37.315Z,21.34
2019-05-18T00:16:10.122Z,21.20
2019-05-18T00:18:42.940Z,19.77
2019-05-18T00:21:15.887Z,18.75
2019-05-18T00:23:48.755Z,17.93
2019-05-18T00:26:21.701Z,17.39
2019-05-18T00:28:54.845Z,16.93
2019-05-18T00:31:27.730Z,18.69
2019-05-18T00:34:00.592Z,21.60
2019-05-18T00:36:33.511Z,21.40
2019-05-18T00:39:07.692Z,19.93
2019-05-18T00:41:40.527Z,18.83
2019-05-18T00:44:13.332Z,18.07
2019-05-18T00:46:46.267Z,17.45
2019-05-18T00:49:19.159Z,16.96
2019-05-18T00:51:52.071Z,18.84
2019-05-18T00:54:24.925Z,21.46
2019-05-18T00:56:57.775Z,20.82
2019-05-18T00:59:30.653Z,19.37
2019-05-18T01:02:03.458Z,18.40
2019-05-18T01:04:36.390Z,17.64
2019-05-18T01:07:09.253Z,17.13
2019-05-18T01:09:42.250Z,18.79
2019-05-18T01:12:15.226Z,21.64
2019-05-18T01:14:49.223Z,21.02
2019-05-18T01:17:23.531Z,19.58
2019-05-18T01:19:56.732Z,18.61
2019-05-18T01:22:31.182Z,17.85
2019-05-18T01:25:04.330Z,17.31
2019-05-18T01:27:38.346Z,17.03
2019-05-18T01:30:11.695Z,19.79
2019-05-18T01:32:44.612Z,21.62
2019-05-18T01:35:17.929Z,20.38
2019-05-18T01:37:50.755Z,19.11
2019-05-18T01:40:23.650Z,18.25
2019-05-18T01:42:56.538Z,17.59
2019-05-18T01:45:30.336Z,17.10
2019-05-18T01:48:13.357Z,19.03
2019-05-18T01:50:37.663Z,21.76
2019-05-18T01:53:11.509Z,20.92
2019-05-18T01:55:44.380Z,19.51
2019-05-18T01:58:17.462Z,18.55
2019-05-18T02:00:51.331Z,17.77
2019-05-18T02:03:25.963Z,17.22
2019-05-18T02:05:58.722Z,18.94
2019-05-18T02:08:31.550Z,21.75
2019-05-18T02:11:04.418Z,21.10
2019-05-18T02:13:37.382Z,19.69
2019-05-18T02:16:10.161Z,18.69
2019-05-18T02:18:42.954Z,17.92
2019-05-18T02:21:15.789Z,17.38
2019-05-18T02:23:48.769Z,17.04
2019-05-18T02:26:21.609Z,19.61
2019-05-18T02:28:54.516Z,21.82
2019-05-18T02:31:27.332Z,20.78
2019-05-18T02:34:00.133Z,19.44
2019-05-18T02:36:33.086Z,18.48
2019-05-18T02:39:07.725Z,17.79
2019-05-18T02:41:40.505Z,17.27
2019-05-18T02:44:13.320Z,19.21
2019-05-18T02:46:46.137Z,21.91
2019-05-18T02:49:19.036Z,21.14
2019-05-18T02:51:51.835Z,19.70
2019-05-18T02:54:24.657Z,18.63
2019-05-18T02:56:57.536Z,17.89
2019-05-18T02:59:30.341Z,17.31
2019-05-18T03:02:03.125Z,16.83
2019-05-18T03:04:36.663Z,18.79
2019-05-18T03:07:09.465Z,21.68
2019-05-18T03:09:42.391Z,20.93
2019-05-18T03:12:15.221Z,19.45
2019-05-18T03:14:48.182Z,18.44
2019-05-18T03:17:21.001Z,17.62
2019-05-18T03:19:54.095Z,17.06
2019-05-18T03:22:26.995Z,18.84
2019-05-18T03:24:59.882Z,21.61
2019-05-18T03:27:32.831Z,21.26
2019-05-18T03:30:05.833Z,19.79
2019-05-18T03:32:38.740Z,18.73
2019-05-18T03:35:12.255Z,17.90
2019-05-18T03:37:45.076Z,17.34
2019-05-18T03:40:18.111Z,16.90
2019-05-18T03:42:50.929Z,18.86
2019-05-18T03:45:23.734Z,21.48
2019-05-18T03:47:56.659Z,21.23
2019-05-18T03:50:29.569Z,19.83
2019-05-18T03:53:02.456Z,18.72
2019-05-18T03:55:36.454Z,17.96
2019-05-18T03:58:09.252Z,17.39
2019-05-18T04:00:42.301Z,17.41
2019-05-18T04:03:15.197Z,20.52
2019-05-18T04:05:48.080Z,21.03
2019-05-18T04:08:21.014Z,19.72
2019-05-18T04:10:54.734Z,18.72
2019-05-18T04:13:27.724Z,17.94
2019-05-18T04:16:00.719Z,17.42
2019-05-18T04:18:33.717Z,19.28
2019-05-18T04:21:09.980Z,22.08
2019-05-18T04:23:42.951Z,21.27
2019-05-18T04:26:15.922Z,19.95
2019-05-18T04:28:48.969Z,18.94
2019-05-18T04:31:21.978Z,18.28
2019-05-18T04:33:54.787Z,17.77
2019-05-18T04:36:27.779Z,19.68
2019-05-18T04:39:00.705Z,22.82
2019-05-18T04:41:33.765Z,22.61
2019-05-18T04:44:10.312Z,21.19
2019-05-18T04:46:43.297Z,20.07
2019-05-18T04:49:25.960Z,19.33
2019-05-18T04:51:59.974Z,18.79
2019-05-18T04:54:35.611Z,18.36
2019-05-18T04:57:08.987Z,20.28
2019-05-18T04:59:42.857Z,23.14
2019-05-18T05:02:15.709Z,22.26
2019-05-18T05:04:52.652Z,20.99
2019-05-18T05:07:24.799Z,20.13
2019-05-18T05:09:58.319Z,19.54
2019-05-18T05:12:31.241Z,19.10
2019-05-18T05:15:06.977Z,18.76
2019-05-18T05:17:40.018Z,20.62
2019-05-18T05:20:19.698Z,23.33
2019-05-18T05:22:52.269Z,22.59
2019-05-18T05:25:25.321Z,21.46
2019-05-18T05:27:59.268Z,20.70
2019-05-18T05:30:32.562Z,20.13
2019-05-18T05:33:05.384Z,19.77
2019-05-18T05:35:38.293Z,19.44
2019-05-18T05:38:12.171Z,19.59
2019-05-18T05:40:45.609Z,22.77
2019-05-18T05:43:19.212Z,23.39
2019-05-18T05:45:52.537Z,22.29
2019-05-18T05:48:25.513Z,21.41
2019-05-18T05:50:58.581Z,20.83
2019-05-18T05:53:31.383Z,20.41
2019-05-18T05:56:04.956Z,20.17
2019-05-18T05:58:37.853Z,19.99
2019-05-18T06:01:10.861Z,22.05
2019-05-18T06:03:43.764Z,24.80
2019-05-18T06:06:16.727Z,24.14
2019-05-18T06:08:49.771Z,23.18
2019-05-18T06:11:22.694Z,22.61
2019-05-18T06:13:55.669Z,22.29
2019-05-18T06:16:28.628Z,22.06
2019-05-18T06:19:01.666Z,21.91
2019-05-18T06:21:34.978Z,21.76
2019-05-18T06:24:07.944Z,21.67
2019-05-18T06:26:40.836Z,21.56
2019-05-18T06:29:13.827Z,21.44
2019-05-18T06:31:46.796Z,21.31
2019-05-18T06:34:19.957Z,21.21
2019-05-18T06:36:55.843Z,21.07
2019-05-18T06:39:27.354Z,20.96
2019-05-18T06:42:00.213Z,20.89
2019-05-18T06:44:33.100Z,20.81
2019-05-18T06:47:07.103Z,20.76
2019-05-18T06:49:39.999Z,20.74
2019-05-18T06:52:12.924Z,20.76
2019-05-18T06:54:45.980Z,21.64
2019-05-18T06:57:19.503Z,23.98
2019-05-18T06:59:53.239Z,23.56
2019-05-18T07:02:26.150Z,23.03
2019-05-18T07:04:58.990Z,22.82
2019-05-18T07:07:32.172Z,22.72
2019-05-18T07:10:05.193Z,22.71
2019-05-18T07:12:38.343Z,22.68
2019-05-18T07:15:12.102Z,22.64
2019-05-18T07:17:45.129Z,22.67
2019-05-18T07:20:18.770Z,22.74
2019-05-18T07:22:52.500Z,22.81
2019-05-18T07:25:26.616Z,22.84
2019-05-18T07:27:59.513Z,22.88
2019-05-18T07:30:32.354Z,22.91
2019-05-18T07:33:05.269Z,22.85
2019-05-18T07:35:38.153Z,22.75
2019-05-18T07:38:11.034Z,22.72
2019-05-18T07:40:44.121Z,22.70
2019-05-18T07:43:17.069Z,22.70
2019-05-18T07:45:49.880Z,22.67
2019-05-18T07:48:22.727Z,22.66
2019-05-18T07:50:55.604Z,22.72
2019-05-18T07:53:28.439Z,22.81
2019-05-18T07:56:01.339Z,22.91
2019-05-18T07:58:36.201Z,23.01
2019-05-18T08:01:09.002Z,23.15
2019-05-18T08:03:41.842Z,23.29
2019-05-18T08:06:14.650Z,23.40
2019-05-18T08:08:47.492Z,23.54
2019-05-18T08:11:20.457Z,23.68
2019-05-18T08:13:53.371Z,23.74
2019-05-18T08:16:26.249Z,23.72
2019-05-18T08:18:59.202Z,23.72
2019-05-18T08:21:32.023Z,23.79
2019-05-18T08:24:04.884Z,23.88
2019-05-18T08:26:37.849Z,23.95
2019-05-18T08:29:11.832Z,24.04
2019-05-18T08:31:44.722Z,24.19
2019-05-18T08:34:17.522Z,24.43
2019-05-18T08:36:50.413Z,24.60
2019-05-18T08:39:23.284Z,24.71
2019-05-18T08:41:56.350Z,24.67
2019-05-18T08:44:29.320Z,24.56
2019-05-18T08:47:02.514Z,24.46
2019-05-18T08:49:35.577Z,24.50
2019-05-18T08:52:08.899Z,24.52
2019-05-18T08:54:41.906Z,24.64
2019-05-18T08:57:14.894Z,24.77
2019-05-18T08:59:47.816Z,24.94
2019-05-18T09:02:20.750Z,25.06
2019-05-18T09:04:53.621Z,25.00
2019-05-18T09:07:26.588Z,24.97
2019-05-18T09:09:59.439Z,24.81
2019-05-18T09:12:32.463Z,24.66
2019-05-18T09:15:06.990Z,24.55
2019-05-18T09:17:40.266Z,24.39
2019-05-18T09:20:14.451Z,24.36
2019-05-18T09:22:47.415Z,24.42
2019-05-18T09:25:21.456Z,24.50
2019-05-18T09:27:54.478Z,24.63
2019-05-18T09:30:27.466Z,24.67
2019-05-18T09:33:00.449Z,24.79
2019-05-18T09:35:33.322Z,24.91
2019-05-18T09:38:06.206Z,25.03
2019-05-18T09:40:39.061Z,25.15
2019-05-18T09:43:11.862Z,25.27
2019-05-18T09:45:44.714Z,25.38
2019-05-18T09:48:17.969Z,25.50
2019-05-18T09:50:57.263Z,25.56
2019-05-18T09:53:31.289Z,25.55
2019-05-18T09:56:04.244Z,25.49
2019-05-18T09:58:37.107Z,25.42
2019-05-18T10:01:09.916Z,25.38
2019-05-18T10:03:42.776Z,25.27
2019-05-18T10:06:16.077Z,25.19
2019-05-18T10:08:49.081Z,25.14
2019-05-18T10:11:23.094Z,25.18
2019-05-18T10:13:56.035Z,25.28
2019-05-18T10:16:28.829Z,25.41
2019-05-18T10:19:01.768Z,25.52
2019-05-18T10:21:34.682Z,25.59
2019-05-18T10:24:07.521Z,25.61
2019-05-18T10:26:40.352Z,25.66
2019-05-18T10:29:13.175Z,25.79
2019-05-18T10:31:46.084Z,25.87
2019-05-18T10:34:18.991Z,25.92
2019-05-18T10:36:51.946Z,26.05
2019-05-18T10:39:24.845Z,26.13
2019-05-18T10:41:57.756Z,26.20
2019-05-18T10:44:30.651Z,26.14
2019-05-18T10:47:03.470Z,26.10
2019-05-18T10:49:36.255Z,26.00
2019-05-18T10:52:09.560Z,25.93
2019-05-18T10:54:42.459Z,25.97
2019-05-18T10:57:15.442Z,25.94
2019-05-18T10:59:48.386Z,25.82
2019-05-18T11:02:21.434Z,25.70
2019-05-18T11:04:54.366Z,25.62
2019-05-18T11:07:29.044Z,25.63
2019-05-18T11:10:02.362Z,25.68
2019-05-18T11:12:35.397Z,25.76
2019-05-18T11:15:09.745Z,25.84
2019-05-18T11:17:42.699Z,25.90
2019-05-18T11:20:17.837Z,25.96
2019-05-18T11:22:50.761Z,25.99
2019-05-18T11:25:23.825Z,26.03
2019-05-18T11:27:56.688Z,26.07
2019-05-18T11:30:29.632Z,26.23
2019-05-18T11:33:02.564Z,26.31
2019-05-18T11:35:35.542Z,26.31
2019-05-18T11:38:08.386Z,26.32
2019-05-18T11:40:41.225Z,26.28
2019-05-18T11:43:14.302Z,26.24
2019-05-18T11:45:47.447Z,26.17
2019-05-18T11:48:20.233Z,26.07
2019-05-18T11:50:53.218Z,26.01
2019-05-18T11:53:26.159Z,26.03
2019-05-18T11:55:58.966Z,26.08
2019-05-18T11:58:31.824Z,26.14
2019-05-18T12:01:04.686Z,26.23
2019-05-18T12:03:37.596Z,26.26
2019-05-18T12:06:10.739Z,26.16
2019-05-18T12:08:43.510Z,26.17
2019-05-18T12:11:16.340Z,26.20
2019-05-18T12:13:49.277Z,26.26
2019-05-18T12:16:22.137Z,26.31
2019-05-18T12:18:57.523Z,26.27
2019-05-18T12:21:30.288Z,26.30
2019-05-18T12:24:14.813Z,26.35
2019-05-18T12:26:37.790Z,26.37
2019-05-18T12:29:10.576Z,26.40
2019-05-18T12:31:43.445Z,26.44
2019-05-18T12:34:16.306Z,26.44
2019-05-18T12:36:49.199Z,26.49
2019-05-18T12:39:22.086Z,26.51
2019-05-18T12:41:54.967Z,26.52
2019-05-18T12:44:27.826Z,26.59
2019-05-18T12:47:00.667Z,26.59
2019-05-18T12:49:33.619Z,26.59
2019-05-18T12:52:06.609Z,26.60
2019-05-18T12:54:46.491Z,26.63
2019-05-18T12:57:14.376Z,26.62
2019-05-18T12:59:47.241Z,26.59
2019-05-18T13:02:20.184Z,26.48
2019-05-18T13:04:54.067Z,26.47
2019-05-18T13:07:26.997Z,26.44
2019-05-18T13:09:59.890Z,26.42
2019-05-18T13:12:32.761Z,26.32
2019-05-18T13:15:06.856Z,26.24
2019-05-18T13:17:39.759Z,26.17
2019-05-18T13:20:13.269Z,26.11
2019-05-18T13:22:48.275Z,26.05
2019-05-18T13:25:21.791Z,25.99
2019-05-18T13:27:54.764Z,25.89
2019-05-18T13:30:27.819Z,25.76
2019-05-18T13:33:00.783Z,25.65
2019-05-18T13:35:33.959Z,25.58
2019-05-18T13:38:06.900Z,25.54
2019-05-18T13:40:42.847Z,25.44
2019-05-18T13:43:15.930Z,25.29
2019-05-18T13:45:48.910Z,25.17
2019-05-18T13:48:21.805Z,25.11
2019-05-18T13:50:54.608Z,25.00
2019-05-18T13:53:27.592Z,24.94
2019-05-18T13:56:00.591Z,24.81
2019-05-18T13:58:33.511Z,24.73
2019-05-18T14:01:06.791Z,24.70
2019-05-18T14:03:40.078Z,24.59
2019-05-18T14:06:13.429Z,24.55
2019-05-18T14:08:47.048Z,24.48
2019-05-18T14:11:21.734Z,24.38
2019-05-18T14:13:54.722Z,24.36
2019-05-18T14:16:29.657Z,24.28
2019-05-18T14:19:02.605Z,24.26
2019-05-18T14:21:35.525Z,24.22
2019-05-18T14:24:08.414Z,24.18
2019-05-18T14:26:41.254Z,24.12
2019-05-18T14:29:14.265Z,24.09
2019-05-18T14:31:47.260Z,24.08
2019-05-18T14:34:20.058Z,24.07
2019-05-18T14:36:52.927Z,24.08
2019-05-18T14:39:26.240Z,24.07
2019-05-18T14:41:59.116Z,24.05
2019-05-18T14:44:32.110Z,24.02
2019-05-18T14:47:05.297Z,24.04
2019-05-18T14:49:38.215Z,24.02
2019-05-18T14:52:12.180Z,24.02
2019-05-18T14:54:45.529Z,24.01
2019-05-18T14:57:18.502Z,24.01
2019-05-18T14:59:51.490Z,24.00
2019-05-18T15:02:24.420Z,24.02
2019-05-18T15:04:57.259Z,24.02
2019-05-18T15:07:30.216Z,24.02
2019-05-18T15:10:03.049Z,24.00
2019-05-18T15:12:36.277Z,24.00
2019-05-18T15:15:10.303Z,23.98
2019-05-18T15:17:44.079Z,24.00
2019-05-18T15:20:18.372Z,24.00
2019-05-18T15:22:51.325Z,23.97
2019-05-18T15:25:24.291Z,23.94
2019-05-18T15:27:57.287Z,23.90
2019-05-18T15:30:30.124Z,23.88
2019-05-18T15:33:02.987Z,23.83
2019-05-18T15:35:36.183Z,23.81
2019-05-18T15:38:09.105Z,23.80
2019-05-18T15:40:41.967Z,23.79
2019-05-18T15:43:14.917Z,23.77
2019-05-18T15:45:47.781Z,23.76
2019-05-18T15:48:20.753Z,23.73
2019-05-18T15:50:53.675Z,23.79
2019-05-18T15:53:26.474Z,23.76
2019-05-18T15:56:05.806Z,23.79
2019-05-18T15:58:34.119Z,23.73
2019-05-18T16:01:07.015Z,23.72
2019-05-18T16:03:40.277Z,23.72
2019-05-18T16:06:13.164Z,23.70
2019-05-18T16:08:46.054Z,23.70
2019-05-18T16:11:18.934Z,23.67
2019-05-18T16:13:51.833Z,23.64
2019-05-18T16:16:24.694Z,23.64
2019-05-18T16:18:57.693Z,23.61
2019-05-18T16:21:30.584Z,23.61
2019-05-18T16:24:03.520Z,23.58
2019-05-18T16:26:36.510Z,23.56
2019-05-18T16:29:09.361Z,23.54
2019-05-18T16:31:42.163Z,23.53
2019-05-18T16:34:16.101Z,23.50
2019-05-18T16:36:48.993Z,23.46
2019-05-18T16:39:21.820Z,23.45
2019-05-18T16:41:54.702Z,23.42
2019-05-18T16:44:27.532Z,23.42
2019-05-18T16:47:00.390Z,23.42
2019-05-18T16:49:33.250Z,23.37
2019-05-18T16:52:06.140Z,23.36
2019-05-18T16:54:39.257Z,23.35
2019-05-18T16:57:12.078Z,23.30
2019-05-18T16:59:45.006Z,23.29
2019-05-18T17:02:30.653Z,23.25
2019-05-18T17:04:52.520Z,23.26
2019-05-18T17:07:25.490Z,23.23
2019-05-18T17:09:58.407Z,23.21
2019-05-18T17:12:31.205Z,23.19
2019-05-18T17:15:04.147Z,23.15
2019-05-18T17:17:37.007Z,23.12
2019-05-18T17:20:11.737Z,23.11
2019-05-18T17:22:44.585Z,23.09
2019-05-18T17:25:17.983Z,23.02
2019-05-18T17:27:50.794Z,22.99
2019-05-18T17:30:23.689Z,22.99
2019-05-18T17:32:57.186Z,22.94
2019-05-18T17:35:30.025Z,22.92
2019-05-18T17:38:02.810Z,22.87
2019-05-18T17:40:35.641Z,22.84
2019-05-18T17:43:08.636Z,22.80
2019-05-18T17:45:41.588Z,22.74
2019-05-18T17:48:14.699Z,22.72
2019-05-18T17:50:47.840Z,22.67
2019-05-18T17:53:20.876Z,22.63
2019-05-18T17:55:53.776Z,22.57
2019-05-18T17:58:26.760Z,22.56
2019-05-18T18:00:59.608Z,22.47
2019-05-18T18:03:32.877Z,22.43
2019-05-18T18:06:05.969Z,22.39
2019-05-18T18:08:38.902Z,22.33
2019-05-18T18:11:12.091Z,22.27
2019-05-18T18:13:45.123Z,22.22
2019-05-18T18:16:20.781Z,22.15
2019-05-18T18:18:53.662Z,22.12
2019-05-18T18:21:26.768Z,22.06
2019-05-18T18:23:59.648Z,21.99
2019-05-18T18:26:32.794Z,21.94
2019-05-18T18:29:05.856Z,21.86
2019-05-18T18:31:38.777Z,21.76
2019-05-18T18:34:12.065Z,21.74
2019-05-18T18:36:45.423Z,21.67
2019-05-18T18:39:18.393Z,21.57
2019-05-18T18:41:51.314Z,21.51
2019-05-18T18:44:24.304Z,21.40
2019-05-18T18:46:57.173Z,21.31
2019-05-18T18:49:30.027Z,21.23
2019-05-18T18:52:02.949Z,21.13
2019-05-18T18:54:35.813Z,21.00
2019-05-18T18:57:08.723Z,20.92
2019-05-18T18:59:41.650Z,20.79
2019-05-18T19:02:14.530Z,20.68
2019-05-18T19:04:47.401Z,20.59
2019-05-18T19:07:20.387Z,20.47
2019-05-18T19:09:53.385Z,20.37
2019-05-18T19:12:26.288Z,20.28
2019-05-18T19:14:59.231Z,20.17
2019-05-18T19:17:32.282Z,20.06
2019-05-18T19:20:05.817Z,19.99
2019-05-18T19:22:38.854Z,19.87
2019-05-18T19:25:12.161Z,19.77
2019-05-18T19:27:54.579Z,19.66
2019-05-18T19:30:20.528Z,19.58
2019-05-18T19:32:53.323Z,19.48
2019-05-18T19:35:26.288Z,19.37
2019-05-18T19:37:59.221Z,19.28
2019-05-18T19:40:32.175Z,19.23
2019-05-18T19:43:06.169Z,19.11
2019-05-18T19:45:39.159Z,19.01
2019-05-18T19:48:12.078Z,18.93
2019-05-18T19:50:45.040Z,18.83
2019-05-18T19:53:18.055Z,18.72
2019-05-18T19:55:51.796Z,18.61
2019-05-18T19:58:24.849Z,18.51
2019-05-18T20:00:58.752Z,18.41
2019-05-18T20:03:33.025Z,18.31
2019-05-18T20:06:07.120Z,18.21
2019-05-18T20:08:39.963Z,18.13
2019-05-18T20:11:12.997Z,18.03
2019-05-18T20:13:45.998Z,17.93
2019-05-18T20:16:18.866Z,17.86
2019-05-18T20:18:51.770Z,17.77
2019-05-18T20:21:24.983Z,17.70
2019-05-18T20:23:58.219Z,17.62
2019-05-18T20:26:31.663Z,17.56
2019-05-18T20:29:05.601Z,17.49
2019-05-18T20:31:38.970Z,17.41
2019-05-18T20:34:11.854Z,19.68
2019-05-18T20:36:44.830Z,22.67
2019-05-18T20:39:17.947Z,22.26
2019-05-18T20:41:50.921Z,21.10
2019-05-18T20:44:23.984Z,20.37
2019-05-18T20:46:57.073Z,19.83
2019-05-18T20:49:29.966Z,19.47
2019-05-18T20:52:02.963Z,19.20
2019-05-18T20:54:35.998Z,18.97
2019-05-18T20:57:08.959Z,18.75
2019-05-18T20:59:41.869Z,18.58
2019-05-18T21:02:14.729Z,18.42
2019-05-18T21:04:47.775Z,18.23
2019-05-18T21:07:21.381Z,18.04
2019-05-18T21:09:54.242Z,17.87
2019-05-18T21:12:27.093Z,17.73
2019-05-18T21:15:00.072Z,17.61
2019-05-18T21:17:33.330Z,17.49
2019-05-18T21:20:06.981Z,17.35
2019-05-18T21:22:39.965Z,17.24
2019-05-18T21:25:13.370Z,17.11
2019-05-18T21:27:46.328Z,18.93
2019-05-18T21:30:20.304Z,22.13
2019-05-18T21:32:53.388Z,22.27
2019-05-18T21:35:26.453Z,21.05
2019-05-18T21:38:00.818Z,20.14
2019-05-18T21:40:33.754Z,19.55
2019-05-18T21:43:06.617Z,19.11
2019-05-18T21:45:39.610Z,18.82
2019-05-18T21:48:12.579Z,18.52
2019-05-18T21:50:45.520Z,18.28
2019-05-18T21:53:18.599Z,18.00
2019-05-18T21:55:51.653Z,17.76
2019-05-18T21:58:24.523Z,17.56
2019-05-18T22:00:57.451Z,17.37
2019-05-18T22:03:30.469Z,17.17
2019-05-18T22:06:03.609Z,17.03
2019-05-18T22:08:36.593Z,16.89
2019-05-18T22:11:09.487Z,19.00
2019-05-18T22:13:42.475Z,22.11
2019-05-18T22:16:15.391Z,21.94
2019-05-18T22:18:48.447Z,20.70
2019-05-18T22:21:21.343Z,19.77
2019-05-18T22:23:54.292Z,19.14
2019-05-18T22:26:27.175Z,18.71
2019-05-18T22:29:00.080Z,18.36
2019-05-18T22:31:33.233Z,18.04
2019-05-18T22:34:09.074Z,17.76
2019-05-18T22:36:41.987Z,17.50
2019-05-18T22:39:14.915Z,17.31
2019-05-18T22:41:47.918Z,17.08
2019-05-18T22:44:20.999Z,16.89
2019-05-18T22:46:54.031Z,16.72
2019-05-18T22:49:27.278Z,18.89
2019-05-18T22:52:00.107Z,21.86
2019-05-18T22:54:33.168Z,21.54
2019-05-18T22:57:06.382Z,20.31
2019-05-18T22:59:39.247Z,19.41
2019-05-18T23:02:12.619Z,18.83
2019-05-18T23:04:45.565Z,18.41
2019-05-18T23:07:18.498Z,18.05
2019-05-18T23:09:51.725Z,17.76
2019-05-18T23:12:24.818Z,17.50
2019-05-18T23:14:57.865Z,17.25
2019-05-18T23:17:30.791Z,17.03
2019-05-18T23:20:03.861Z,16.79
2019-05-18T23:22:36.976Z,16.62
2019-05-18T23:25:10.335Z,18.72
2019-05-18T23:27:43.326Z,21.78
2019-05-18T23:30:16.448Z,21.48
2019-05-18T23:32:50.665Z,20.23
2019-05-18T23:35:23.799Z,19.31
2019-05-18T23:37:56.910Z,18.73
2019-05-18T23:40:29.764Z,18.27
2019-05-18T23:43:02.680Z,17.89
2019-05-18T23:45:35.895Z,17.61
2019-05-18T23:48:08.884Z,17.35
2019-05-18T23:50:41.797Z,17.07
2019-05-18T23:53:14.596Z,16.86
2019-05-18T23:55:47.505Z,16.63
2019-05-18T23:58:20.370Z,18.65
